Rola — J8Y3743 — position and weather

sailwx.info

Track history (hours):
 
Tides and Currents Weather Stations Pressure Air Temp Water Temp Dewpoint Dewpoint Depression Visibility Wind Speed Wind Dir Waves Ship Positions

Rola

Last reported at 2015-Jun-30 06:33 UTC. Time now 2015-Jun-30 08:16 UTC.
Position N 43°41' E 007°21'.

Length 47 m; draft 3.2 m.

Type: Pleasure craft. MMSI: 375275000.

Date/timePositionNaut miles runAvg speedWind from/ knotsBaromVisibWave heightAir tempDewpointWater temp
2015-Jun-30 06:33N 43°41' E 007°21'1111.4
2015-Jun-30 05:33N 43°33' E 007°10'2 0.1
2015-Jun-29 17:34N 43°33' E 007°08'0 0.0
2015-Jun-29 15:23N 43°33' E 007°08'0 0.0
2015-Jun-29 14:24N 43°33' E 007°08'6 6.9
2015-Jun-29 13:33N 43°38' E 007°10'1 0.6
2015-Jun-29 11:31N 43°39' E 007°11'8 8.3
2015-Jun-29 10:33N 43°32' E 007°07'7 0.2
2015-Jun-27 23:10N 43°31' E 006°57'0 0.0
2015-Jun-27 22:33N 43°31' E 006°57'0 0.0
2015-Jun-27 21:28N 43°31' E 006°57'0 0.0
2015-Jun-27 19:33N 43°31' E 006°57'0 0.0
2015-Jun-27 18:32N 43°31' E 006°57'0 0.0
2015-Jun-27 16:32N 43°31' E 006°57'0 0.0
2015-Jun-27 06:21N 43°31' E 006°57'0 0.0
2015-Jun-26 06:26N 43°31' E 006°57'0 0.0
2015-Jun-26 05:32N 43°31' E 006°57'  
Track history (hours):
 
Tides and Currents Weather Stations Pressure Air Temp Water Temp Dewpoint Dewpoint Depression Visibility Wind Speed Wind Dir Waves Ship Positions

Rola

Last reported at 2015-Jun-30 06:33 UTC. Time now 2015-Jun-30 08:16 UTC.
Position N 43°41' E 007°21'.

Length 47 m; draft 3.2 m.

Type: Pleasure craft. MMSI: 375275000.

Date/timePositionNaut miles runAvg speedWind from/ knotsBaromVisibWave heightAir tempDewpointWater temp
2015-Jun-30 06:33N 43°41' E 007°21'1111.4
2015-Jun-30 05:33N 43°33' E 007°10'2 0.1
2015-Jun-29 17:34N 43°33' E 007°08'0 0.0
2015-Jun-29 15:23N 43°33' E 007°08'0 0.0
2015-Jun-29 14:24N 43°33' E 007°08'6 6.9
2015-Jun-29 13:33N 43°38' E 007°10'1 0.6
2015-Jun-29 11:31N 43°39' E 007°11'8 8.3
2015-Jun-29 10:33N 43°32' E 007°07'7 0.2
2015-Jun-27 23:10N 43°31' E 006°57'0 0.0
2015-Jun-27 22:33N 43°31' E 006°57'0 0.0
2015-Jun-27 21:28N 43°31' E 006°57'0 0.0
2015-Jun-27 19:33N 43°31' E 006°57'0 0.0
2015-Jun-27 18:32N 43°31' E 006°57'0 0.0
2015-Jun-27 16:32N 43°31' E 006°57'0 0.0
2015-Jun-27 06:21N 43°31' E 006°57'0 0.0
2015-Jun-26 06:26N 43°31' E 006°57'0 0.0
2015-Jun-26 05:32N 43°31' E 006°57'  

Dump ship's entire track history